createdAt,value
2022-07-30T00:09:23.803Z,8.10
2022-07-30T00:19:31.285Z,7.10
2022-07-30T00:29:39.081Z,6.50
2022-07-30T00:39:52.132Z,6.10
2022-07-30T00:49:59.227Z,9.40
2022-07-30T01:00:08.645Z,12.20
2022-07-30T01:10:18.482Z,7.50
2022-07-30T01:20:29.906Z,7.10
2022-07-30T01:30:44.361Z,5.50
2022-07-30T01:40:53.247Z,7.80
2022-07-30T01:51:03.760Z,5.00
2022-07-30T02:01:11.474Z,4.80
2022-07-30T02:11:18.905Z,9.40
2022-07-30T02:21:34.045Z,3.60
2022-07-30T02:31:44.714Z,4.00
2022-07-30T02:41:53.958Z,8.70
2022-07-30T02:52:03.003Z,6.30
2022-07-30T03:02:14.654Z,3.70
2022-07-30T03:12:23.084Z,4.80
2022-07-30T03:22:33.142Z,7.80
2022-07-30T03:32:43.020Z,5.90
2022-07-30T03:42:51.126Z,5.50
2022-07-30T03:52:58.903Z,6.10
2022-07-30T04:03:06.190Z,8.90
2022-07-30T04:13:12.450Z,4.10
2022-07-30T04:23:20.025Z,5.10
2022-07-30T04:33:28.321Z,4.10
2022-07-30T04:43:35.420Z,5.50
2022-07-30T04:53:44.061Z,13.70
2022-07-30T05:03:54.232Z,6.70
2022-07-30T05:14:01.619Z,6.10
2022-07-30T05:24:09.723Z,7.30
2022-07-30T05:34:16.828Z,8.30
2022-07-30T05:44:24.377Z,7.70
2022-07-30T05:54:31.587Z,8.70
2022-07-30T06:04:38.941Z,4.40
2022-07-30T06:14:53.378Z,5.00
2022-07-30T06:25:00.485Z,10.80
2022-07-30T06:35:08.525Z,7.60
2022-07-30T06:45:15.526Z,7.50
2022-07-30T06:55:22.766Z,10.50
2022-07-30T07:05:29.292Z,9.30
2022-07-30T07:15:37.600Z,13.50
2022-07-30T07:25:45.088Z,9.30
2022-07-30T07:35:54.337Z,9.10
2022-07-30T07:46:01.702Z,12.60
2022-07-30T08:06:16.282Z,10.50
2022-07-30T08:16:23.274Z,6.90
2022-07-30T08:26:30.418Z,8.70
2022-07-30T08:36:39.086Z,6.80
2022-07-30T08:46:48.187Z,9.90
2022-07-30T08:56:56.256Z,7.40
2022-07-30T09:07:04.983Z,5.70
2022-07-30T09:17:14.608Z,10.00
2022-07-30T09:27:21.767Z,7.50
2022-07-30T09:47:37.485Z,7.10
2022-07-30T09:57:57.641Z,7.70
2022-07-30T10:08:16.256Z,11.00
2022-07-30T10:18:24.948Z,10.60
2022-07-30T10:28:38.414Z,8.70
2022-07-30T10:38:52.588Z,10.20
2022-07-30T10:49:11.701Z,10.00
2022-07-30T10:59:27.230Z,9.20
2022-07-30T11:09:42.738Z,10.30
2022-07-30T11:20:13.347Z,9.60
2022-07-30T11:30:32.799Z,7.50
2022-07-30T11:41:00.380Z,8.20
2022-07-30T11:51:07.078Z,8.70
2022-07-30T12:01:15.872Z,8.80
2022-07-30T12:11:23.014Z,9.50
2022-07-30T12:21:29.334Z,12.50
2022-07-30T12:31:38.429Z,10.60
2022-07-30T12:41:47.264Z,11.00
2022-07-30T12:52:00.250Z,12.00
2022-07-30T13:02:07.704Z,14.20
2022-07-30T13:12:15.343Z,14.90
2022-07-30T13:22:22.312Z,18.10
2022-07-30T13:32:29.600Z,12.70
2022-07-30T13:42:36.850Z,15.50
2022-07-30T13:52:44.121Z,14.70
2022-07-30T14:02:51.522Z,12.60
2022-07-30T14:13:00.082Z,14.10
2022-07-30T14:23:07.135Z,16.10
2022-07-30T14:33:14.537Z,14.70
2022-07-30T14:43:21.658Z,13.70
2022-07-30T14:53:28.967Z,13.00
2022-07-30T15:03:34.886Z,17.50
2022-07-30T15:13:50.338Z,14.60
2022-07-30T15:23:58.306Z,14.40
2022-07-30T15:34:04.783Z,14.20
2022-07-30T15:44:13.891Z,10.50
2022-07-30T15:54:22.220Z,10.80
2022-07-30T16:04:33.167Z,10.70
2022-07-30T16:14:40.395Z,9.70
2022-07-30T16:24:47.800Z,10.50
2022-07-30T16:34:54.920Z,14.60
2022-07-30T16:45:02.077Z,14.50
2022-07-30T16:55:10.709Z,12.20
2022-07-30T17:05:18.333Z,11.80
2022-07-30T17:15:32.724Z,11.20
2022-07-30T17:25:40.543Z,12.20
2022-07-30T17:35:47.721Z,14.30
2022-07-30T17:45:54.946Z,14.60
2022-07-30T17:56:01.963Z,14.40
2022-07-30T18:06:09.697Z,14.90
2022-07-30T18:16:17.246Z,14.50
2022-07-30T18:26:22.724Z,15.10
2022-07-30T18:36:30.044Z,12.80
2022-07-30T18:46:37.664Z,15.80
2022-07-30T18:56:44.768Z,12.30
2022-07-30T19:06:51.883Z,13.80
2022-07-30T19:16:59.230Z,15.40
2022-07-30T19:27:09.939Z,11.20
2022-07-30T19:37:19.542Z,14.50
2022-07-30T19:57:53.385Z,13.40
2022-07-30T20:07:59.842Z,16.20
2022-07-30T20:18:08.209Z,13.90
2022-07-30T20:28:14.751Z,12.50
2022-07-30T20:38:25.036Z,5.90
2022-07-30T20:48:35.191Z,5.60
2022-07-30T20:58:45.292Z,4.60
2022-07-30T21:08:56.605Z,5.50
2022-07-30T21:19:03.610Z,4.70
2022-07-30T21:29:10.495Z,5.90
2022-07-30T21:39:17.868Z,8.10
2022-07-30T21:49:24.950Z,5.60
2022-07-30T21:59:32.486Z,6.20
2022-07-30T22:09:40.356Z,5.00
2022-07-30T22:19:47.888Z,5.00
2022-07-30T22:29:55.357Z,6.30
2022-07-30T22:40:03.602Z,6.90
2022-07-30T22:50:14.888Z,5.10
2022-07-30T23:00:27.750Z,7.60
2022-07-30T23:10:36.759Z,2.40
2022-07-30T23:20:43.994Z,3.70
2022-07-30T23:30:50.963Z,2.20
2022-07-30T23:41:01.411Z,1.10
2022-07-30T23:51:08.705Z,1.20
